createdAt,value
2022-10-07T00:00:44.992Z,76.96
2022-10-07T00:02:47.841Z,77.03
2022-10-07T00:04:50.588Z,77.30
2022-10-07T00:06:54.678Z,77.39
2022-10-07T00:08:57.412Z,77.35
2022-10-07T00:11:05.715Z,77.20
2022-10-07T00:13:10.576Z,77.60
2022-10-07T00:15:13.334Z,77.54
2022-10-07T00:17:16.128Z,77.49
2022-10-07T00:19:19.836Z,77.32
2022-10-07T00:21:22.581Z,77.14
2022-10-07T00:23:26.674Z,77.10
2022-10-07T00:25:29.445Z,77.03
2022-10-07T00:27:32.272Z,76.83
2022-10-07T00:29:35.023Z,76.98
2022-10-07T00:31:38.868Z,77.12
2022-10-07T00:33:42.264Z,77.17
2022-10-07T00:35:45.086Z,77.18
2022-10-07T00:37:47.839Z,77.10
2022-10-07T00:39:51.806Z,77.02
2022-10-07T00:41:56.503Z,77.03
2022-10-07T00:44:00.001Z,77.03
2022-10-07T00:46:08.249Z,76.41
2022-10-07T00:48:10.968Z,76.71
2022-10-07T00:50:19.073Z,77.12
2022-10-07T00:52:25.407Z,77.25
2022-10-07T00:54:28.134Z,77.54
2022-10-07T00:56:32.787Z,77.35
2022-10-07T00:58:38.031Z,77.48
2022-10-07T01:00:40.973Z,77.59
2022-10-07T01:02:44.391Z,77.65
2022-10-07T01:04:49.053Z,77.38
2022-10-07T01:06:51.689Z,77.47
2022-10-07T01:08:55.526Z,77.57
2022-10-07T01:11:13.888Z,77.52
2022-10-07T01:13:26.626Z,77.46
2022-10-07T01:15:36.497Z,77.21
2022-10-07T01:17:47.528Z,77.48
2022-10-07T01:20:08.321Z,77.55
2022-10-07T01:22:26.296Z,77.47
2022-10-07T01:24:41.289Z,77.44
2022-10-07T01:26:54.102Z,77.57
2022-10-07T01:29:01.960Z,77.67
2022-10-07T01:31:07.419Z,77.56
2022-10-07T01:33:15.941Z,77.54
2022-10-07T01:35:22.399Z,77.37
2022-10-07T01:37:27.035Z,77.55
2022-10-07T01:39:34.555Z,77.59
2022-10-07T01:41:38.646Z,77.93
2022-10-07T01:43:43.258Z,77.67
2022-10-07T01:45:46.183Z,77.82
2022-10-07T01:47:49.167Z,78.21
2022-10-07T01:49:51.771Z,78.35
2022-10-07T01:52:12.161Z,78.27
2022-10-07T01:54:29.169Z,78.31
2022-10-07T01:56:44.968Z,78.21
2022-10-07T01:59:09.236Z,78.23
2022-10-07T02:01:20.549Z,78.25
2022-10-07T02:03:39.605Z,78.38
2022-10-07T02:05:52.735Z,78.57
2022-10-07T02:08:12.729Z,78.25
2022-10-07T02:10:25.210Z,78.51
2022-10-07T02:12:34.889Z,78.32
2022-10-07T02:14:46.095Z,78.49
2022-10-07T02:16:51.421Z,78.38
2022-10-07T02:18:54.957Z,78.44
2022-10-07T02:20:57.718Z,78.30
2022-10-07T02:23:03.213Z,78.09
2022-10-07T02:25:07.579Z,78.79
2022-10-07T02:27:13.809Z,78.65
2022-10-07T02:29:20.208Z,78.17
2022-10-07T02:31:29.687Z,78.22
2022-10-07T02:33:34.923Z,78.74
2022-10-07T02:35:44.795Z,78.50
2022-10-07T02:37:51.385Z,78.25
2022-10-07T02:39:55.779Z,78.85
2022-10-07T02:42:05.715Z,78.87
2022-10-07T02:44:18.128Z,78.59
2022-10-07T02:46:27.106Z,78.71
2022-10-07T02:48:34.424Z,78.49
2022-10-07T02:50:42.437Z,78.34
2022-10-07T02:52:47.116Z,78.57
2022-10-07T02:54:54.724Z,78.52
2022-10-07T02:56:59.599Z,78.46
2022-10-07T02:59:04.579Z,78.20
2022-10-07T03:01:10.321Z,78.33
2022-10-07T03:03:14.475Z,78.47
2022-10-07T03:05:19.253Z,78.67
2022-10-07T03:07:23.292Z,78.50
2022-10-07T03:09:26.842Z,78.01
2022-10-07T03:11:29.574Z,78.33
2022-10-07T03:13:32.204Z,78.13
2022-10-07T03:15:42.082Z,78.32
2022-10-07T03:17:45.865Z,78.34
2022-10-07T03:19:50.239Z,78.69
2022-10-07T03:21:53.975Z,78.28
2022-10-07T03:23:57.163Z,78.53
2022-10-07T03:26:00.685Z,78.50
2022-10-07T03:28:03.350Z,78.30
2022-10-07T03:30:07.754Z,78.15
2022-10-07T03:32:11.080Z,78.24
2022-10-07T03:34:13.667Z,78.03
2022-10-07T03:36:17.605Z,77.97
2022-10-07T03:38:20.664Z,78.33
2022-10-07T03:40:23.230Z,78.38
2022-10-07T03:42:25.807Z,78.38
2022-10-07T03:44:28.385Z,76.34
2022-10-07T03:46:31.092Z,77.04
2022-10-07T03:48:33.786Z,77.60
2022-10-07T03:50:36.577Z,77.62
2022-10-07T03:52:40.537Z,77.88
2022-10-07T03:54:43.524Z,78.14
2022-10-07T03:56:46.149Z,78.04
2022-10-07T03:58:48.675Z,77.68
2022-10-07T04:00:51.282Z,78.25
2022-10-07T04:02:53.970Z,78.21
2022-10-07T04:04:57.110Z,77.87
2022-10-07T04:06:59.720Z,77.62
2022-10-07T04:09:03.882Z,77.52
2022-10-07T04:11:06.594Z,77.11
2022-10-07T04:13:09.162Z,76.98
2022-10-07T04:15:13.695Z,76.53
2022-10-07T04:17:18.817Z,77.24
2022-10-07T04:19:21.371Z,77.63
2022-10-07T04:21:23.961Z,77.31
2022-10-07T04:23:26.572Z,77.07
2022-10-07T04:25:37.579Z,76.69
2022-10-07T04:27:51.518Z,76.03
2022-10-07T04:29:54.635Z,76.54
2022-10-07T04:31:58.981Z,76.56
2022-10-07T04:34:01.777Z,76.15
2022-10-07T04:36:05.568Z,75.48
2022-10-07T04:38:10.503Z,75.94
2022-10-07T04:40:13.065Z,75.45
2022-10-07T04:42:30.913Z,75.32
2022-10-07T04:44:33.471Z,75.17
2022-10-07T04:46:36.103Z,75.01
2022-10-07T04:48:38.725Z,75.08
2022-10-07T04:50:41.311Z,75.07
2022-10-07T04:52:44.338Z,75.03
2022-10-07T04:54:46.976Z,75.25
2022-10-07T04:56:50.543Z,75.49
2022-10-07T04:58:55.228Z,75.28
2022-10-07T05:00:59.853Z,75.63
2022-10-07T05:03:02.827Z,75.45
2022-10-07T05:05:06.011Z,74.97
2022-10-07T05:07:08.593Z,75.54
2022-10-07T05:09:11.377Z,75.76
2022-10-07T05:11:13.970Z,76.27
2022-10-07T05:13:17.830Z,76.43
2022-10-07T05:15:24.298Z,76.86
2022-10-07T05:17:26.955Z,78.81
2022-10-07T05:19:29.531Z,78.94
2022-10-07T05:21:33.494Z,79.13
2022-10-07T05:23:37.134Z,77.74
2022-10-07T05:25:39.743Z,77.17
2022-10-07T05:27:42.526Z,77.61
2022-10-07T05:29:45.367Z,77.73
2022-10-07T05:31:49.962Z,77.37
2022-10-07T05:33:52.761Z,77.60
2022-10-07T05:35:55.319Z,77.21
2022-10-07T05:37:57.943Z,77.31
2022-10-07T05:40:00.544Z,76.09
2022-10-07T05:42:03.227Z,75.79
2022-10-07T05:44:05.872Z,76.88
2022-10-07T05:46:11.570Z,77.00
2022-10-07T05:48:15.560Z,77.62
2022-10-07T05:50:18.187Z,78.79
2022-10-07T05:52:21.147Z,78.85
2022-10-07T05:54:24.472Z,77.94
2022-10-07T05:56:27.119Z,78.46
2022-10-07T05:58:29.729Z,78.94
2022-10-07T06:00:32.311Z,79.33
2022-10-07T06:02:36.233Z,76.74
2022-10-07T06:04:43.062Z,77.42
2022-10-07T06:06:45.619Z,77.71
2022-10-07T06:08:48.377Z,77.64
2022-10-07T06:11:09.046Z,78.06
2022-10-07T06:13:10.668Z,78.11
2022-10-07T06:15:13.131Z,78.56
2022-10-07T06:17:15.746Z,78.44
2022-10-07T06:19:22.572Z,78.60
2022-10-07T06:21:28.059Z,78.11
2022-10-07T06:23:31.918Z,78.59
2022-10-07T06:25:35.348Z,78.74
2022-10-07T06:27:37.945Z,78.96
2022-10-07T06:29:40.860Z,78.96
2022-10-07T06:31:44.138Z,78.87
2022-10-07T06:33:46.717Z,79.24
2022-10-07T06:35:49.274Z,79.00
2022-10-07T06:37:53.187Z,78.91
2022-10-07T06:39:59.476Z,79.81
2022-10-07T06:42:02.339Z,79.64
2022-10-07T06:44:04.946Z,79.78
2022-10-07T06:46:08.975Z,79.86
2022-10-07T06:48:11.587Z,79.88
2022-10-07T06:50:14.688Z,79.79
2022-10-07T06:52:17.245Z,79.86
2022-10-07T06:54:21.191Z,78.67
2022-10-07T06:56:23.842Z,79.10
2022-10-07T06:58:26.928Z,79.48
2022-10-07T07:00:29.493Z,79.82
2022-10-07T07:02:32.136Z,79.37
2022-10-07T07:04:34.836Z,79.35
2022-10-07T07:06:37.412Z,79.13
2022-10-07T07:08:41.259Z,77.93
2022-10-07T07:10:46.560Z,78.25
2022-10-07T07:12:49.578Z,78.39
2022-10-07T07:14:52.748Z,78.35
2022-10-07T07:16:55.509Z,78.36
2022-10-07T07:18:59.927Z,78.48
2022-10-07T07:21:03.565Z,78.38
2022-10-07T07:23:08.760Z,78.06
2022-10-07T07:25:11.966Z,77.97
2022-10-07T07:27:15.894Z,77.99
2022-10-07T07:29:18.563Z,78.04
2022-10-07T07:31:21.952Z,78.04
2022-10-07T07:33:25.399Z,78.26
2022-10-07T07:35:31.029Z,78.33
2022-10-07T07:37:34.212Z,78.45
2022-10-07T07:39:36.934Z,78.22
2022-10-07T07:41:41.952Z,78.37
2022-10-07T07:43:49.374Z,78.60
2022-10-07T07:45:51.980Z,78.33
2022-10-07T07:47:54.660Z,78.47
2022-10-07T07:49:57.235Z,76.83
2022-10-07T07:51:59.901Z,76.40
2022-10-07T07:54:02.491Z,76.63
2022-10-07T07:56:05.421Z,76.17
2022-10-07T07:58:11.755Z,76.14
2022-10-07T08:00:17.079Z,75.83
2022-10-07T08:02:20.441Z,76.40
2022-10-07T08:04:23.727Z,76.95
2022-10-07T08:06:27.924Z,76.23
2022-10-07T08:08:31.481Z,75.91
2022-10-07T08:10:34.063Z,76.39
2022-10-07T08:12:36.626Z,76.61
2022-10-07T08:14:39.940Z,76.94
2022-10-07T08:16:44.950Z,75.39
2022-10-07T08:18:49.426Z,75.49
2022-10-07T08:20:58.117Z,76.49
2022-10-07T08:23:01.069Z,76.75
2022-10-07T08:25:03.682Z,76.37
2022-10-07T08:27:06.279Z,76.87
2022-10-07T08:29:08.901Z,75.79
2022-10-07T08:31:14.434Z,76.13
2022-10-07T08:33:19.179Z,75.70
2022-10-07T08:35:21.771Z,75.96
2022-10-07T08:37:24.387Z,76.43
2022-10-07T08:39:29.444Z,74.57
2022-10-07T08:41:47.771Z,75.05
2022-10-07T08:43:52.399Z,74.95
2022-10-07T08:45:55.986Z,75.19
2022-10-07T08:48:00.829Z,74.73
2022-10-07T08:50:09.730Z,74.60
2022-10-07T08:52:26.545Z,74.54
2022-10-07T08:54:31.361Z,74.44
2022-10-07T08:56:34.776Z,74.47
2022-10-07T08:58:50.236Z,73.45
2022-10-07T09:01:00.302Z,74.15
2022-10-07T09:03:11.774Z,73.53
2022-10-07T09:05:22.140Z,74.22
2022-10-07T09:07:33.830Z,72.79
2022-10-07T09:09:40.306Z,73.65
2022-10-07T09:11:48.928Z,73.82
2022-10-07T09:13:55.481Z,73.29
2022-10-07T09:16:00.532Z,73.74
2022-10-07T09:18:08.209Z,73.88
2022-10-07T09:20:16.438Z,73.48
2022-10-07T09:22:23.601Z,73.72
2022-10-07T09:24:28.959Z,73.51
2022-10-07T09:26:31.508Z,73.00
2022-10-07T09:28:34.510Z,72.99
2022-10-07T09:30:37.217Z,73.23
2022-10-07T09:32:43.987Z,73.46
2022-10-07T09:34:47.678Z,73.80
2022-10-07T09:37:13.261Z,73.38
2022-10-07T09:39:24.076Z,73.38
2022-10-07T09:41:32.063Z,73.47
2022-10-07T09:43:36.089Z,72.58
2022-10-07T09:45:39.961Z,72.38
2022-10-07T09:47:43.024Z,71.85
2022-10-07T09:49:51.383Z,71.95
2022-10-07T09:52:03.115Z,71.87
2022-10-07T09:54:07.208Z,71.50
2022-10-07T09:56:33.622Z,71.55
2022-10-07T09:58:36.200Z,71.87
2022-10-07T10:00:44.258Z,72.11
2022-10-07T10:02:50.116Z,71.90
2022-10-07T10:04:54.667Z,70.94
2022-10-07T10:07:02.634Z,70.62
2022-10-07T10:09:05.287Z,70.42
2022-10-07T10:11:28.187Z,71.01
2022-10-07T10:13:34.308Z,71.51
2022-10-07T10:15:42.664Z,71.73
2022-10-07T10:17:45.300Z,71.44
2022-10-07T10:19:47.901Z,71.47
2022-10-07T10:21:53.041Z,71.76
2022-10-07T10:23:57.989Z,71.63
2022-10-07T10:26:30.819Z,71.69
2022-10-07T10:28:46.525Z,71.56
2022-10-07T10:30:57.777Z,71.33
2022-10-07T10:33:14.356Z,71.42
2022-10-07T10:35:23.217Z,71.77
2022-10-07T10:37:32.284Z,71.60
2022-10-07T10:39:47.557Z,71.71
2022-10-07T10:41:54.288Z,71.96
2022-10-07T10:44:13.320Z,71.85
2022-10-07T10:46:33.247Z,70.87
2022-10-07T10:48:44.022Z,71.05
2022-10-07T10:50:54.619Z,69.86
2022-10-07T10:53:07.503Z,70.28
2022-10-07T10:55:27.897Z,70.86
2022-10-07T10:57:38.688Z,70.63
2022-10-07T10:59:56.931Z,69.78
2022-10-07T11:02:13.281Z,69.69
2022-10-07T11:04:25.671Z,69.95
2022-10-07T11:06:30.857Z,70.37
2022-10-07T11:08:38.396Z,70.51
2022-10-07T11:10:46.309Z,69.99
2022-10-07T11:12:55.566Z,70.29
2022-10-07T11:15:03.809Z,70.01
2022-10-07T11:17:07.698Z,70.18
2022-10-07T11:19:17.420Z,69.74
2022-10-07T11:21:26.071Z,70.27
2022-10-07T11:23:45.155Z,70.59
2022-10-07T11:25:53.725Z,70.47
2022-10-07T11:28:06.113Z,70.34
2022-10-07T11:30:18.489Z,69.68
2022-10-07T11:32:25.503Z,70.08
2022-10-07T11:34:37.993Z,69.68
2022-10-07T11:36:48.493Z,69.85
2022-10-07T11:38:53.214Z,69.47
2022-10-07T11:41:02.417Z,69.38
2022-10-07T11:43:14.430Z,69.23
2022-10-07T11:45:24.089Z,69.27
2022-10-07T11:47:35.086Z,69.16
2022-10-07T11:49:43.854Z,68.40
2022-10-07T11:51:55.718Z,68.91
2022-10-07T11:54:03.973Z,68.47
2022-10-07T11:56:20.368Z,67.50
2022-10-07T11:58:28.076Z,67.69
2022-10-07T12:00:34.832Z,68.24
2022-10-07T12:02:40.724Z,68.22
2022-10-07T12:04:43.486Z,67.79
2022-10-07T12:07:19.193Z,67.42
2022-10-07T12:10:18.218Z,67.63
2022-10-07T12:12:24.134Z,67.22
2022-10-07T12:14:42.972Z,66.88
2022-10-07T12:16:56.034Z,66.81
2022-10-07T12:19:23.228Z,66.45
2022-10-07T12:21:26.521Z,67.16
2022-10-07T12:24:10.974Z,67.20
2022-10-07T12:26:50.688Z,67.08
2022-10-07T12:28:55.726Z,66.98
2022-10-07T12:31:00.564Z,67.46
2022-10-07T12:33:15.719Z,67.38
2022-10-07T12:35:50.017Z,67.53
2022-10-07T12:38:05.563Z,67.99
2022-10-07T12:40:17.796Z,67.29
2022-10-07T12:42:21.042Z,66.66
2022-10-07T12:44:27.302Z,67.46
2022-10-07T12:46:34.490Z,67.43
2022-10-07T12:48:43.521Z,66.33
2022-10-07T12:50:48.518Z,66.48
2022-10-07T12:52:54.998Z,66.79
2022-10-07T12:55:01.660Z,65.20
2022-10-07T12:57:12.073Z,65.42
2022-10-07T12:59:47.452Z,65.71
2022-10-07T13:02:18.360Z,65.92
2022-10-07T13:04:48.229Z,65.42
2022-10-07T13:07:20.630Z,65.42
2022-10-07T13:09:53.724Z,65.70
2022-10-07T13:12:14.685Z,64.97
2022-10-07T13:14:24.476Z,64.91
2022-10-07T13:16:33.978Z,65.42
2022-10-07T13:18:42.906Z,65.59
2022-10-07T13:21:03.429Z,65.21
2022-10-07T13:23:13.007Z,65.07
2022-10-07T13:25:18.635Z,65.74
2022-10-07T13:27:26.535Z,65.30
2022-10-07T13:29:37.722Z,65.27
2022-10-07T13:31:40.560Z,64.03
2022-10-07T13:33:44.404Z,63.58
2022-10-07T13:35:46.990Z,64.16
2022-10-07T13:37:51.436Z,64.20
2022-10-07T13:39:54.214Z,64.12
2022-10-07T13:42:00.097Z,63.31
2022-10-07T13:44:05.850Z,62.58
2022-10-07T13:46:10.194Z,61.36
2022-10-07T13:48:17.180Z,60.87
2022-10-07T13:50:23.535Z,61.05
2022-10-07T13:52:32.753Z,60.21
2022-10-07T13:54:37.439Z,59.70
2022-10-07T13:56:41.795Z,59.79
2022-10-07T13:58:44.651Z,59.99
2022-10-07T14:00:48.871Z,59.94
2022-10-07T14:02:51.975Z,59.17
2022-10-07T14:05:01.222Z,58.54
2022-10-07T14:07:16.692Z,57.90
2022-10-07T14:09:26.378Z,58.42
2022-10-07T14:11:30.722Z,58.83
2022-10-07T14:13:37.801Z,58.31
2022-10-07T14:15:48.307Z,58.49
2022-10-07T14:17:54.627Z,58.89
2022-10-07T14:20:05.448Z,58.57
2022-10-07T14:22:19.395Z,58.41
2022-10-07T14:24:22.141Z,58.72
2022-10-07T14:26:44.996Z,59.07
2022-10-07T14:28:47.723Z,59.03
2022-10-07T14:31:29.943Z,58.96
2022-10-07T14:33:59.847Z,58.03
2022-10-07T14:36:14.497Z,58.20
2022-10-07T14:38:21.927Z,57.70
2022-10-07T14:40:25.629Z,57.55
2022-10-07T14:42:33.334Z,57.98
2022-10-07T14:44:36.467Z,57.77
2022-10-07T14:46:39.144Z,57.45
2022-10-07T14:48:42.136Z,57.39
2022-10-07T14:50:45.093Z,57.26
2022-10-07T14:52:49.795Z,57.36
2022-10-07T14:54:53.863Z,57.81
2022-10-07T14:56:56.445Z,58.26
2022-10-07T14:59:00.828Z,58.79
2022-10-07T15:01:03.429Z,58.82
2022-10-07T15:03:06.041Z,59.00
2022-10-07T15:05:09.514Z,59.39
2022-10-07T15:07:13.165Z,59.46
2022-10-07T15:09:18.308Z,59.83
2022-10-07T15:11:22.484Z,60.16
2022-10-07T15:13:25.166Z,60.46
2022-10-07T15:15:29.094Z,61.25
2022-10-07T15:17:31.686Z,61.41
2022-10-07T15:19:34.694Z,61.21
2022-10-07T15:21:38.646Z,60.68
2022-10-07T15:23:41.604Z,60.92
2022-10-07T15:25:44.198Z,61.90
2022-10-07T15:27:46.779Z,62.39
2022-10-07T15:29:51.638Z,62.44
2022-10-07T15:31:55.549Z,62.09
2022-10-07T15:33:58.596Z,62.68
2022-10-07T15:36:01.687Z,63.05
2022-10-07T15:38:04.279Z,63.61
2022-10-07T15:40:08.221Z,62.98
2022-10-07T15:42:12.915Z,62.68
2022-10-07T15:44:17.564Z,62.81
2022-10-07T15:46:20.193Z,63.24
2022-10-07T15:48:24.185Z,63.27
2022-10-07T15:50:27.436Z,63.52
2022-10-07T15:52:32.562Z,63.71
2022-10-07T15:54:36.188Z,64.91
2022-10-07T15:56:38.776Z,65.40
2022-10-07T15:58:42.015Z,64.96
2022-10-07T16:00:44.637Z,65.19
2022-10-07T16:02:47.616Z,65.61
2022-10-07T16:04:52.122Z,66.68
2022-10-07T16:06:54.754Z,67.19
2022-10-07T16:08:57.956Z,67.71
2022-10-07T16:11:02.118Z,68.01
2022-10-07T16:13:04.725Z,67.77
2022-10-07T16:15:08.281Z,68.18
2022-10-07T16:17:10.944Z,67.91
2022-10-07T16:19:13.824Z,68.03
2022-10-07T16:21:21.598Z,67.86
2022-10-07T16:23:24.385Z,67.98
2022-10-07T16:25:27.066Z,68.16
2022-10-07T16:27:50.379Z,68.26
2022-10-07T16:30:19.108Z,68.60
2022-10-07T16:32:21.715Z,69.05
2022-10-07T16:34:24.564Z,69.10
2022-10-07T16:36:28.495Z,69.25
2022-10-07T16:38:32.560Z,69.54
2022-10-07T16:40:35.174Z,69.90
2022-10-07T16:42:37.733Z,70.14
2022-10-07T16:44:40.272Z,70.45
2022-10-07T16:46:43.101Z,70.60
2022-10-07T16:48:47.088Z,70.82
2022-10-07T16:50:49.755Z,71.01
2022-10-07T16:52:53.943Z,71.60
2022-10-07T16:54:56.531Z,71.59
2022-10-07T16:56:59.115Z,71.81
2022-10-07T16:59:03.685Z,71.94
2022-10-07T17:01:09.537Z,71.69
2022-10-07T17:03:12.117Z,70.60
2022-10-07T17:05:14.889Z,71.02
2022-10-07T17:07:19.946Z,71.32
2022-10-07T17:09:25.265Z,71.41
2022-10-07T17:11:31.064Z,71.89
2022-10-07T17:13:36.801Z,71.99
2022-10-07T17:15:40.893Z,71.92
2022-10-07T17:17:43.834Z,72.04
2022-10-07T17:19:46.856Z,71.78
2022-10-07T17:21:50.850Z,71.87
2022-10-07T17:23:58.143Z,71.46
2022-10-07T17:26:06.980Z,71.00
2022-10-07T17:28:09.627Z,71.36
2022-10-07T17:30:17.223Z,71.47
2022-10-07T17:32:19.799Z,71.40
2022-10-07T17:34:23.073Z,71.10
2022-10-07T17:36:27.384Z,71.20
2022-10-07T17:38:34.155Z,71.35
2022-10-07T17:40:38.558Z,71.40
2022-10-07T17:42:42.479Z,71.42
2022-10-07T17:44:45.076Z,71.40
2022-10-07T17:46:48.865Z,71.41
2022-10-07T17:48:52.977Z,71.61
2022-10-07T17:50:55.593Z,71.65
2022-10-07T17:53:00.553Z,71.60
2022-10-07T17:55:04.130Z,71.49
2022-10-07T17:57:06.729Z,71.87
2022-10-07T17:59:10.802Z,71.76
2022-10-07T18:01:15.781Z,71.68
2022-10-07T18:03:18.430Z,71.89
2022-10-07T18:05:21.015Z,71.99
2022-10-07T18:07:23.561Z,71.75
2022-10-07T18:09:27.500Z,71.96
2022-10-07T18:11:44.623Z,71.88
2022-10-07T18:14:16.810Z,71.85
2022-10-07T18:16:21.422Z,72.17
2022-10-07T18:18:24.075Z,72.30
2022-10-07T18:20:28.450Z,71.67
2022-10-07T18:22:31.025Z,72.14
2022-10-07T18:24:33.713Z,71.99
2022-10-07T18:26:36.357Z,71.84
2022-10-07T18:28:39.538Z,71.68
2022-10-07T18:30:42.124Z,71.96
2022-10-07T18:32:46.132Z,72.13
2022-10-07T18:34:51.599Z,72.02
2022-10-07T18:36:57.495Z,71.80
2022-10-07T18:39:00.572Z,72.25
2022-10-07T18:41:04.789Z,72.13
2022-10-07T18:43:07.929Z,72.29
2022-10-07T18:45:10.870Z,72.37
2022-10-07T18:47:13.497Z,72.21
2022-10-07T18:49:17.481Z,71.41
2022-10-07T18:51:20.225Z,71.29
2022-10-07T18:53:22.814Z,71.14
2022-10-07T18:55:25.970Z,71.76
2022-10-07T18:57:28.566Z,71.86
2022-10-07T18:59:31.183Z,72.07
2022-10-07T19:01:33.997Z,72.02
2022-10-07T19:03:36.648Z,72.21
2022-10-07T19:05:41.719Z,72.06
2022-10-07T19:07:44.696Z,72.45
2022-10-07T19:09:47.664Z,72.41
2022-10-07T19:11:53.318Z,72.62
2022-10-07T19:13:56.601Z,72.53
2022-10-07T19:16:03.218Z,72.51
2022-10-07T19:18:06.515Z,72.73
2022-10-07T19:20:11.143Z,72.69
2022-10-07T19:22:16.885Z,72.57
2022-10-07T19:24:20.617Z,72.75
2022-10-07T19:26:26.465Z,72.90
2022-10-07T19:28:30.292Z,73.17
2022-10-07T19:30:32.898Z,73.24
2022-10-07T19:32:35.509Z,73.40
2022-10-07T19:34:38.232Z,73.45
2022-10-07T19:36:46.790Z,72.90
2022-10-07T19:38:53.330Z,73.19
2022-10-07T19:40:57.303Z,72.93
2022-10-07T19:42:59.867Z,73.21
2022-10-07T19:45:02.992Z,73.45
2022-10-07T19:47:05.754Z,73.54
2022-10-07T19:49:09.365Z,72.56
2022-10-07T19:51:13.508Z,72.86
2022-10-07T19:53:16.754Z,73.02
2022-10-07T19:55:20.652Z,73.27
2022-10-07T19:57:27.450Z,73.52
2022-10-07T19:59:30.012Z,73.50
2022-10-07T20:01:36.102Z,73.71
2022-10-07T20:03:38.819Z,73.75
2022-10-07T20:05:42.079Z,73.89
2022-10-07T20:07:45.098Z,74.13
2022-10-07T20:09:47.860Z,73.97
2022-10-07T20:11:51.913Z,73.92
2022-10-07T20:13:54.931Z,73.87
2022-10-07T20:16:02.965Z,74.15
2022-10-07T20:18:06.087Z,74.07
2022-10-07T20:20:09.824Z,74.11
2022-10-07T20:22:12.646Z,74.21
2022-10-07T20:24:16.892Z,74.20
2022-10-07T20:26:21.759Z,74.30
2022-10-07T20:28:25.833Z,73.77
2022-10-07T20:30:29.045Z,73.79
2022-10-07T20:32:33.999Z,73.84
2022-10-07T20:34:38.285Z,73.83
2022-10-07T20:36:41.946Z,73.81
2022-10-07T20:39:03.042Z,72.28
2022-10-07T20:41:23.105Z,73.21
2022-10-07T20:43:27.017Z,73.58
2022-10-07T20:45:30.096Z,73.76
2022-10-07T20:47:35.201Z,73.80
2022-10-07T20:49:41.546Z,73.83
2022-10-07T20:51:44.122Z,74.24
2022-10-07T20:53:48.396Z,74.07
2022-10-07T20:55:51.095Z,74.19
2022-10-07T20:57:53.701Z,74.42
2022-10-07T20:59:57.606Z,74.24
2022-10-07T21:02:00.726Z,74.14
2022-10-07T21:04:04.205Z,74.44
2022-10-07T21:06:07.491Z,74.37
2022-10-07T21:08:10.170Z,74.59
2022-10-07T21:10:14.120Z,74.56
2022-10-07T21:12:18.421Z,74.41
2022-10-07T21:14:21.412Z,74.52
2022-10-07T21:16:26.484Z,74.64
2022-10-07T21:18:30.803Z,74.57
2022-10-07T21:20:33.422Z,74.46
2022-10-07T21:22:37.425Z,74.42
2022-10-07T21:24:40.011Z,74.25
2022-10-07T21:26:42.594Z,74.54
2022-10-07T21:28:48.087Z,74.80
2022-10-07T21:30:56.315Z,74.84
2022-10-07T21:33:00.529Z,74.76
2022-10-07T21:35:03.117Z,74.79
2022-10-07T21:37:05.995Z,74.81
2022-10-07T21:39:09.236Z,75.00
2022-10-07T21:41:13.673Z,75.20
2022-10-07T21:43:16.217Z,75.27
2022-10-07T21:45:18.834Z,75.36
2022-10-07T21:47:21.428Z,75.43
2022-10-07T21:49:25.485Z,75.52
2022-10-07T21:51:29.442Z,75.55
2022-10-07T21:53:33.638Z,75.55
2022-10-07T21:55:37.368Z,75.34
2022-10-07T21:57:41.820Z,75.57
2022-10-07T21:59:44.439Z,75.53
2022-10-07T22:01:47.080Z,75.67
2022-10-07T22:03:54.553Z,75.48
2022-10-07T22:06:03.271Z,75.86
2022-10-07T22:08:23.606Z,76.28
2022-10-07T22:10:26.200Z,76.21
2022-10-07T22:12:29.938Z,76.59
2022-10-07T22:14:32.520Z,76.58
2022-10-07T22:16:37.548Z,76.69
2022-10-07T22:18:40.132Z,76.52
2022-10-07T22:20:42.731Z,76.75
2022-10-07T22:22:46.835Z,76.45
2022-10-07T22:24:49.615Z,76.50
2022-10-07T22:26:52.273Z,76.81
2022-10-07T22:28:54.967Z,76.75
2022-10-07T22:30:58.459Z,77.05
2022-10-07T22:33:01.080Z,76.96
2022-10-07T22:35:21.501Z,76.86
2022-10-07T22:37:24.160Z,76.64
2022-10-07T22:39:29.547Z,76.71
2022-10-07T22:41:32.278Z,76.75
2022-10-07T22:43:36.612Z,76.23
2022-10-07T22:45:39.235Z,76.43
2022-10-07T22:47:41.808Z,76.15
2022-10-07T22:49:44.415Z,76.55
2022-10-07T22:51:47.002Z,76.49
2022-10-07T22:53:53.315Z,76.56
2022-10-07T22:56:02.716Z,76.42
2022-10-07T22:58:05.317Z,76.42
2022-10-07T23:00:08.979Z,76.38
2022-10-07T23:02:11.557Z,76.30
2022-10-07T23:04:14.194Z,76.21
2022-10-07T23:06:19.801Z,76.39
2022-10-07T23:08:22.383Z,76.48
2022-10-07T23:10:24.975Z,76.65
2022-10-07T23:12:28.871Z,76.75
2022-10-07T23:14:31.861Z,76.50
2022-10-07T23:16:34.602Z,76.35
2022-10-07T23:18:37.229Z,76.62
2022-10-07T23:20:39.791Z,76.69
2022-10-07T23:22:45.147Z,77.02
2022-10-07T23:24:47.913Z,76.81
2022-10-07T23:26:50.485Z,76.85
2022-10-07T23:28:56.173Z,77.11
2022-10-07T23:30:58.893Z,77.29
2022-10-07T23:33:01.569Z,77.67
2022-10-07T23:35:04.377Z,77.41
2022-10-07T23:37:07.055Z,77.36
2022-10-07T23:39:10.122Z,77.16
2022-10-07T23:41:13.800Z,77.65
2022-10-07T23:43:16.356Z,77.30
2022-10-07T23:45:20.238Z,77.65
2022-10-07T23:47:22.833Z,78.10
2022-10-07T23:49:25.473Z,78.22
2022-10-07T23:51:29.369Z,78.39
2022-10-07T23:53:32.591Z,78.49
2022-10-07T23:55:35.401Z,78.50
2022-10-07T23:57:37.990Z,78.64
2022-10-07T23:59:40.629Z,78.66
